createdAt,value
2018-03-30T00:00:07.514Z,76.13
2018-03-30T00:02:35.806Z,75.77
2018-03-30T00:05:09.412Z,75.83
2018-03-30T00:07:37.710Z,76.50
2018-03-30T00:10:06.893Z,76.66
2018-03-30T00:12:35.441Z,76.25
2018-03-30T00:15:06.562Z,75.88
2018-03-30T00:17:34.856Z,76.33
2018-03-30T00:20:06.620Z,76.13
2018-03-30T00:22:34.921Z,76.64
2018-03-30T00:25:06.656Z,76.89
2018-03-30T00:27:34.963Z,76.29
2018-03-30T00:30:06.664Z,76.41
2018-03-30T00:32:34.936Z,76.43
2018-03-30T00:35:06.864Z,76.36
2018-03-30T00:37:35.296Z,76.81
2018-03-30T00:40:07.413Z,77.07
2018-03-30T00:42:35.677Z,76.84
2018-03-30T00:45:07.237Z,76.37
2018-03-30T00:47:35.970Z,76.37
2018-03-30T00:50:05.518Z,76.50
2018-03-30T00:52:33.773Z,75.98
2018-03-30T00:55:05.733Z,76.11
2018-03-30T00:57:33.997Z,75.78
2018-03-30T01:00:05.449Z,74.75
2018-03-30T01:02:34.034Z,74.31
2018-03-30T01:05:05.556Z,73.80
2018-03-30T01:07:33.929Z,72.69
2018-03-30T01:10:05.388Z,72.07
2018-03-30T01:12:33.679Z,72.14
2018-03-30T01:15:05.151Z,73.18
2018-03-30T01:17:33.443Z,74.31
2018-03-30T01:20:05.525Z,75.04
2018-03-30T01:22:33.858Z,75.37
2018-03-30T01:25:05.335Z,74.92
2018-03-30T01:27:33.611Z,73.35
2018-03-30T01:30:05.019Z,72.53
2018-03-30T01:32:33.704Z,72.34
2018-03-30T01:35:05.014Z,72.46
2018-03-30T01:37:33.287Z,72.07
2018-03-30T01:40:08.247Z,71.87
2018-03-30T01:42:37.752Z,70.84
2018-03-30T01:45:06.639Z,70.16
2018-03-30T01:47:34.985Z,69.60
2018-03-30T01:50:06.470Z,69.26
2018-03-30T01:52:34.761Z,68.88
2018-03-30T01:55:05.784Z,68.52
2018-03-30T01:57:34.346Z,68.28
2018-03-30T02:00:06.441Z,68.65
2018-03-30T02:02:34.764Z,68.32
2018-03-30T02:05:06.760Z,68.79
2018-03-30T02:07:35.025Z,68.52
2018-03-30T02:10:06.331Z,68.56
2018-03-30T02:12:34.722Z,68.56
2018-03-30T02:15:05.615Z,68.76
2018-03-30T02:17:33.965Z,68.48
2018-03-30T02:20:05.424Z,69.09
2018-03-30T02:22:33.832Z,69.39
2018-03-30T02:25:05.610Z,69.91
2018-03-30T02:27:34.537Z,70.08
2018-03-30T02:30:06.221Z,69.89
2018-03-30T02:32:34.494Z,69.92
2018-03-30T02:35:05.822Z,69.98
2018-03-30T02:37:34.098Z,70.26
2018-03-30T02:40:05.824Z,70.61
2018-03-30T02:42:34.266Z,70.85
2018-03-30T02:45:05.917Z,70.60
2018-03-30T02:47:34.196Z,70.96
2018-03-30T02:50:06.125Z,70.60
2018-03-30T02:52:34.421Z,70.59
2018-03-30T02:55:05.809Z,70.41
2018-03-30T02:57:34.131Z,70.35
2018-03-30T03:00:05.692Z,70.46
2018-03-30T03:02:34.504Z,70.56
2018-03-30T03:05:05.944Z,70.28
2018-03-30T03:07:34.205Z,70.22
2018-03-30T03:10:07.410Z,70.63
2018-03-30T03:12:36.147Z,70.35
2018-03-30T03:15:06.165Z,70.54
2018-03-30T03:17:34.432Z,70.49
2018-03-30T03:20:05.894Z,70.55
2018-03-30T03:22:37.766Z,70.64
2018-03-30T03:25:06.057Z,70.68
2018-03-30T03:27:34.329Z,70.92
2018-03-30T03:30:05.926Z,70.91
2018-03-30T03:32:34.230Z,70.88
2018-03-30T03:35:05.656Z,70.88
2018-03-30T03:37:33.912Z,71.47
2018-03-30T03:40:06.231Z,70.93
2018-03-30T03:42:34.495Z,71.64
2018-03-30T03:45:05.749Z,71.05
2018-03-30T03:47:34.432Z,71.14
2018-03-30T03:50:06.332Z,70.97
2018-03-30T03:52:34.726Z,71.21
2018-03-30T03:55:06.801Z,70.89
2018-03-30T03:57:35.089Z,70.82
2018-03-30T04:00:07.119Z,70.75
2018-03-30T04:02:35.418Z,71.06
2018-03-30T04:05:07.529Z,70.90
2018-03-30T04:07:35.801Z,70.94
2018-03-30T04:10:07.026Z,70.75
2018-03-30T04:12:35.313Z,70.75
2018-03-30T04:15:06.500Z,70.86
2018-03-30T04:17:35.118Z,72.31
2018-03-30T04:20:07.652Z,71.42
2018-03-30T04:22:35.951Z,71.78
2018-03-30T04:25:05.937Z,71.54
2018-03-30T04:27:34.222Z,70.92
2018-03-30T04:30:09.218Z,70.86
2018-03-30T04:32:37.633Z,71.81
2018-03-30T04:35:05.914Z,71.57
2018-03-30T04:37:34.237Z,71.51
2018-03-30T04:40:09.357Z,71.45
2018-03-30T04:42:37.636Z,72.14
2018-03-30T04:45:06.060Z,74.94
2018-03-30T04:47:34.826Z,72.98
2018-03-30T04:50:06.546Z,71.44
2018-03-30T04:52:34.832Z,71.02
2018-03-30T04:55:06.048Z,71.09
2018-03-30T04:57:34.801Z,70.84
2018-03-30T05:00:06.800Z,71.39
2018-03-30T05:02:35.080Z,71.21
2018-03-30T05:05:05.930Z,71.40
2018-03-30T05:07:34.207Z,71.30
2018-03-30T05:10:09.238Z,71.04
2018-03-30T05:12:37.504Z,71.37
2018-03-30T05:15:05.776Z,71.47
2018-03-30T05:17:34.213Z,70.80
2018-03-30T05:20:09.238Z,71.44
2018-03-30T05:22:37.502Z,70.24
2018-03-30T05:25:05.784Z,69.86
2018-03-30T05:27:34.058Z,69.94
2018-03-30T05:30:05.492Z,70.06
2018-03-30T05:32:33.758Z,70.44
2018-03-30T05:35:05.248Z,70.82
2018-03-30T05:37:33.542Z,71.22
2018-03-30T05:40:08.290Z,71.21
2018-03-30T05:42:36.566Z,71.69
2018-03-30T05:45:06.100Z,71.33
2018-03-30T05:47:34.370Z,72.59
2018-03-30T05:50:05.794Z,71.41
2018-03-30T05:52:34.096Z,71.49
2018-03-30T05:55:05.834Z,70.88
2018-03-30T05:57:34.549Z,70.09
2018-03-30T06:00:08.494Z,69.50
2018-03-30T06:02:37.042Z,69.21
2018-03-30T06:05:06.129Z,69.02
2018-03-30T06:07:34.389Z,68.42
2018-03-30T06:10:07.441Z,68.01
2018-03-30T06:12:35.728Z,67.26
2018-03-30T06:15:05.842Z,65.90
2018-03-30T06:17:34.142Z,65.31
2018-03-30T06:20:06.016Z,64.81
2018-03-30T06:22:34.327Z,64.67
2018-03-30T06:25:09.327Z,65.37
2018-03-30T06:27:37.859Z,64.76
2018-03-30T06:30:06.140Z,64.12
2018-03-30T06:32:34.428Z,63.71
2018-03-30T06:35:08.444Z,64.42
2018-03-30T06:37:36.732Z,63.24
2018-03-30T06:40:06.233Z,64.91
2018-03-30T06:42:34.520Z,63.86
2018-03-30T06:45:06.599Z,63.55
2018-03-30T06:47:34.869Z,61.48
2018-03-30T06:50:07.036Z,62.07
2018-03-30T06:52:35.300Z,60.02
2018-03-30T06:55:07.064Z,59.85
2018-03-30T06:57:35.345Z,59.03
2018-03-30T07:00:07.065Z,58.21
2018-03-30T07:02:39.580Z,58.30
2018-03-30T07:05:07.851Z,58.96
2018-03-30T07:07:36.334Z,58.88
2018-03-30T07:10:06.447Z,61.32
2018-03-30T07:12:34.769Z,57.64
2018-03-30T07:15:06.691Z,57.92
2018-03-30T07:17:34.972Z,51.73
2018-03-30T07:20:07.025Z,54.07
2018-03-30T07:22:35.361Z,53.51
2018-03-30T07:25:06.635Z,52.44
2018-03-30T07:27:34.885Z,54.42
2018-03-30T07:30:06.620Z,54.18
2018-03-30T07:32:35.073Z,56.37
2018-03-30T07:35:06.449Z,54.78
2018-03-30T07:37:34.813Z,54.40
2018-03-30T07:40:07.585Z,54.22
2018-03-30T07:42:35.849Z,51.46
2018-03-30T07:45:07.508Z,52.64
2018-03-30T07:47:36.757Z,52.11
2018-03-30T07:50:06.882Z,48.64
2018-03-30T07:52:35.444Z,46.42
2018-03-30T07:55:07.926Z,47.52
2018-03-30T07:57:36.261Z,47.21
2018-03-30T08:00:06.088Z,50.87
2018-03-30T08:02:34.369Z,53.38
2018-03-30T08:05:09.732Z,50.78
2018-03-30T08:07:38.012Z,51.15
2018-03-30T08:10:06.278Z,46.61
2018-03-30T08:12:34.554Z,44.01
2018-03-30T08:15:08.597Z,44.89
2018-03-30T08:17:37.118Z,42.85
2018-03-30T08:20:06.412Z,43.58
2018-03-30T08:22:35.125Z,43.81
2018-03-30T08:25:06.849Z,44.48
2018-03-30T08:27:35.249Z,45.02
2018-03-30T08:30:07.439Z,44.54
2018-03-30T08:32:35.714Z,46.37
2018-03-30T08:35:08.024Z,47.24
2018-03-30T08:37:37.124Z,46.78
2018-03-30T08:40:06.356Z,46.83
2018-03-30T08:42:35.275Z,45.45
2018-03-30T08:45:07.503Z,45.82
2018-03-30T08:47:36.148Z,44.88
2018-03-30T08:50:07.735Z,46.67
2018-03-30T08:52:36.028Z,45.47
2018-03-30T08:55:05.994Z,48.49
2018-03-30T08:57:34.589Z,45.39
2018-03-30T09:00:06.037Z,46.92
2018-03-30T09:02:34.328Z,44.53
2018-03-30T09:05:06.425Z,44.04
2018-03-30T09:07:35.039Z,45.67
2018-03-30T09:10:07.060Z,44.71
2018-03-30T09:12:35.372Z,48.61
2018-03-30T09:15:06.840Z,45.75
2018-03-30T09:17:35.123Z,45.83
2018-03-30T09:20:06.825Z,45.53
2018-03-30T09:22:35.353Z,47.04
2018-03-30T09:25:07.841Z,46.60
2018-03-30T09:27:36.549Z,46.55
2018-03-30T09:30:06.631Z,45.00
2018-03-30T09:32:34.939Z,45.00
2018-03-30T09:35:06.299Z,45.30
2018-03-30T09:37:34.590Z,47.23
2018-03-30T09:40:06.712Z,42.87
2018-03-30T09:42:34.982Z,40.76
2018-03-30T09:45:07.392Z,39.30
2018-03-30T09:47:35.665Z,39.82
2018-03-30T09:50:07.386Z,39.54
2018-03-30T09:52:35.654Z,40.74
2018-03-30T09:55:07.766Z,44.48
2018-03-30T09:57:36.857Z,39.55
2018-03-30T10:00:06.455Z,39.37
2018-03-30T10:02:34.739Z,39.60
2018-03-30T10:05:06.343Z,40.64
2018-03-30T10:07:34.613Z,41.63
2018-03-30T10:10:06.054Z,39.94
2018-03-30T10:12:35.286Z,38.52
2018-03-30T10:15:06.305Z,40.01
2018-03-30T10:17:34.596Z,39.69
2018-03-30T10:20:07.610Z,40.35
2018-03-30T10:22:35.925Z,39.09
2018-03-30T10:25:07.316Z,37.76
2018-03-30T10:27:35.772Z,39.07
2018-03-30T10:30:07.473Z,36.22
2018-03-30T10:32:35.770Z,37.25
2018-03-30T10:35:08.064Z,35.58
2018-03-30T10:37:36.360Z,36.12
2018-03-30T10:40:06.263Z,35.22
2018-03-30T10:42:34.550Z,36.16
2018-03-30T10:45:09.702Z,36.12
2018-03-30T10:47:38.012Z,38.76
2018-03-30T10:50:06.284Z,36.79
2018-03-30T10:52:34.585Z,36.42
2018-03-30T10:55:06.132Z,35.69
2018-03-30T10:57:34.793Z,35.36
2018-03-30T11:00:08.841Z,36.30
2018-03-30T11:02:37.093Z,37.42
2018-03-30T11:05:06.596Z,36.77
2018-03-30T11:07:35.145Z,35.83
2018-03-30T11:10:07.144Z,35.61
2018-03-30T11:12:35.534Z,36.21
2018-03-30T11:15:09.397Z,35.05
2018-03-30T11:17:37.673Z,36.61
2018-03-30T11:20:06.676Z,35.15
2018-03-30T11:22:34.908Z,34.59
2018-03-30T11:25:06.706Z,35.27
2018-03-30T11:27:34.978Z,35.74
2018-03-30T11:30:06.393Z,34.42
2018-03-30T11:32:34.804Z,33.23
2018-03-30T11:35:06.932Z,34.30
2018-03-30T11:37:35.206Z,33.71
2018-03-30T11:40:06.635Z,33.90
2018-03-30T11:42:34.915Z,35.82
2018-03-30T11:45:06.594Z,37.04
2018-03-30T11:47:34.870Z,38.12
2018-03-30T11:50:07.013Z,40.40
2018-03-30T11:52:35.318Z,38.68
2018-03-30T11:55:07.481Z,39.26
2018-03-30T11:57:35.749Z,41.02
2018-03-30T12:00:07.694Z,41.66
2018-03-30T12:02:36.144Z,41.14
2018-03-30T12:05:08.374Z,41.72
2018-03-30T12:07:36.652Z,40.09
2018-03-30T12:10:06.569Z,39.54
2018-03-30T12:12:34.880Z,39.94
2018-03-30T12:15:06.997Z,39.66
2018-03-30T12:17:35.298Z,40.87
2018-03-30T12:20:07.305Z,41.13
2018-03-30T12:22:35.590Z,40.94
2018-03-30T12:25:07.734Z,41.83
2018-03-30T12:27:36.027Z,41.05
2018-03-30T12:30:08.003Z,39.47
2018-03-30T12:32:36.284Z,40.59
2018-03-30T12:35:06.234Z,40.55
2018-03-30T12:37:34.486Z,40.66
2018-03-30T12:40:05.856Z,41.13
2018-03-30T12:42:34.280Z,42.43
2018-03-30T12:45:09.258Z,41.08
2018-03-30T12:47:37.536Z,41.71
2018-03-30T12:50:08.039Z,40.68
2018-03-30T12:52:36.333Z,41.69
2018-03-30T12:55:06.342Z,40.98
2018-03-30T12:57:34.606Z,40.95
2018-03-30T13:00:07.434Z,41.77
2018-03-30T13:02:35.733Z,41.69
2018-03-30T13:05:07.729Z,40.83
2018-03-30T13:07:36.480Z,40.22
2018-03-30T13:10:08.201Z,40.82
2018-03-30T13:12:36.465Z,41.74
2018-03-30T13:15:07.041Z,40.64
2018-03-30T13:17:35.369Z,41.01
2018-03-30T13:20:07.125Z,40.71
2018-03-30T13:22:35.376Z,41.07
2018-03-30T13:25:07.540Z,40.71
2018-03-30T13:27:35.817Z,41.52
2018-03-30T13:30:07.064Z,41.73
2018-03-30T13:32:35.340Z,41.34
2018-03-30T13:35:07.634Z,42.43
2018-03-30T13:37:35.909Z,41.99
2018-03-30T13:40:07.956Z,41.28
2018-03-30T13:42:36.241Z,41.53
2018-03-30T13:45:08.139Z,41.88
2018-03-30T13:47:36.418Z,41.29
2018-03-30T13:50:13.418Z,41.18
2018-03-30T13:52:49.492Z,41.43
2018-03-30T13:55:18.041Z,41.18
2018-03-30T13:57:48.029Z,41.19
2018-03-30T14:00:25.680Z,41.39
2018-03-30T14:02:57.608Z,40.45
2018-03-30T14:05:40.609Z,41.23
2018-03-30T14:11:10.351Z,42.80
2018-03-30T14:13:38.654Z,41.27
2018-03-30T14:16:13.406Z,42.59
2018-03-30T14:18:53.489Z,40.96
2018-03-30T14:21:23.152Z,40.05
2018-03-30T14:23:54.240Z,40.24
2018-03-30T14:26:26.566Z,39.41
2018-03-30T14:35:26.445Z,39.33
2018-03-30T14:38:01.275Z,39.67
2018-03-30T14:40:31.428Z,40.24
2018-03-30T14:43:03.344Z,40.65
2018-03-30T14:45:37.833Z,41.90
2018-03-30T14:48:07.214Z,40.05
2018-03-30T14:50:36.317Z,39.88
2018-03-30T14:53:06.073Z,40.35
2018-03-30T14:55:41.982Z,40.08
2018-03-30T14:58:25.933Z,40.28
2018-03-30T15:00:54.845Z,40.95
2018-03-30T15:03:24.945Z,40.96
2018-03-30T15:05:56.213Z,41.29
2018-03-30T15:08:31.041Z,40.26
2018-03-30T15:14:01.416Z,40.52
2018-03-30T15:16:34.358Z,41.19
2018-03-30T15:19:03.321Z,42.95
2018-03-30T15:24:28.320Z,43.75
2018-03-30T15:27:02.105Z,43.52
2018-03-30T15:29:37.450Z,44.04
2018-03-30T15:35:04.074Z,44.45
2018-03-30T15:37:32.876Z,44.89
2018-03-30T15:40:08.595Z,44.75
2018-03-30T15:42:42.413Z,45.23
2018-03-30T15:45:13.993Z,45.61
2018-03-30T15:47:42.379Z,45.67
2018-03-30T15:50:10.656Z,46.13
2018-03-30T15:52:38.921Z,45.74
2018-03-30T15:55:07.223Z,45.99
2018-03-30T15:57:35.514Z,45.75
2018-03-30T16:00:08.798Z,45.41
2018-03-30T16:02:38.584Z,45.57
2018-03-30T16:05:06.941Z,45.58
2018-03-30T16:07:35.330Z,45.80
2018-03-30T16:10:11.360Z,46.13
2018-03-30T16:12:40.489Z,47.17
2018-03-30T16:15:08.778Z,46.35
2018-03-30T16:17:37.075Z,45.20
2018-03-30T16:20:06.542Z,44.92
2018-03-30T16:22:34.307Z,44.59
2018-03-30T16:25:08.426Z,45.22
2018-03-30T16:27:36.158Z,44.62
2018-03-30T16:30:07.739Z,45.34
2018-03-30T16:32:35.525Z,45.83
2018-03-30T16:35:06.975Z,46.00
2018-03-30T16:37:34.723Z,47.09
2018-03-30T16:40:06.412Z,47.59
2018-03-30T16:42:34.380Z,47.85
2018-03-30T16:45:08.554Z,48.44
2018-03-30T16:47:36.301Z,48.20
2018-03-30T16:50:07.287Z,48.99
2018-03-30T16:52:35.150Z,49.08
2018-03-30T16:55:05.861Z,49.56
2018-03-30T16:57:33.873Z,50.13
2018-03-30T17:00:04.728Z,50.08
2018-03-30T17:02:32.453Z,50.29
2018-03-30T17:05:00.221Z,50.70
2018-03-30T17:07:30.998Z,50.96
2018-03-30T17:09:59.017Z,51.22
2018-03-30T17:12:27.599Z,51.40
2018-03-30T17:14:55.347Z,51.78
2018-03-30T17:17:23.110Z,51.95
2018-03-30T17:22:25.410Z,52.69
2018-03-30T17:24:53.173Z,53.21
2018-03-30T17:27:20.923Z,53.97
2018-03-30T17:29:48.924Z,54.40
2018-03-30T17:32:16.706Z,55.54
2018-03-30T17:34:44.453Z,56.30
2018-03-30T17:37:12.198Z,57.01
2018-03-30T17:39:39.976Z,57.43
2018-03-30T17:42:07.737Z,58.73
2018-03-30T17:44:35.481Z,59.65
2018-03-30T17:47:03.255Z,60.99
2018-03-30T17:49:31.019Z,61.33
2018-03-30T17:51:58.773Z,61.96
2018-03-30T17:54:26.932Z,62.73
2018-03-30T17:56:54.666Z,62.73
2018-03-30T17:59:22.419Z,63.25
2018-03-30T18:01:50.192Z,63.28
2018-03-30T18:04:17.937Z,64.06
2018-03-30T18:06:45.755Z,64.88
2018-03-30T18:09:13.840Z,64.92
2018-03-30T18:11:41.700Z,65.34
2018-03-30T18:14:09.726Z,65.53
2018-03-30T18:16:37.634Z,66.65
2018-03-30T18:19:05.497Z,66.63
2018-03-30T18:21:33.196Z,67.35
2018-03-30T18:24:00.943Z,67.58
2018-03-30T18:26:28.677Z,68.00
2018-03-30T18:28:56.473Z,68.33
2018-03-30T18:31:24.282Z,68.03
2018-03-30T18:33:52.042Z,67.69
2018-03-30T18:36:19.827Z,67.10
2018-03-30T18:38:51.768Z,66.68
2018-03-30T18:41:19.533Z,67.26
2018-03-30T18:43:47.349Z,67.16
2018-03-30T18:46:15.096Z,67.96
2018-03-30T18:48:43.493Z,68.08
2018-03-30T18:51:11.301Z,68.46
2018-03-30T18:53:39.058Z,68.43
2018-03-30T18:56:06.860Z,68.62
2018-03-30T18:58:34.586Z,68.15
2018-03-30T19:01:02.351Z,68.48
2018-03-30T19:03:30.113Z,67.92
2018-03-30T19:05:57.865Z,67.25
2018-03-30T19:08:25.595Z,67.86
2018-03-30T19:10:53.561Z,68.13
2018-03-30T19:13:21.301Z,67.48
2018-03-30T19:15:49.047Z,67.83
2018-03-30T19:18:16.877Z,68.36
2018-03-30T19:20:44.639Z,68.90
2018-03-30T19:23:12.383Z,69.13
2018-03-30T19:25:40.152Z,70.37
2018-03-30T19:28:07.886Z,71.26
2018-03-30T19:30:35.774Z,72.26
2018-03-30T19:33:03.551Z,73.42
2018-03-30T19:35:31.330Z,74.07
2018-03-30T19:37:59.051Z,74.97
2018-03-30T19:40:26.781Z,75.98
2018-03-30T19:42:54.538Z,77.19
2018-03-30T19:45:22.292Z,76.38
2018-03-30T19:47:50.718Z,78.79
2018-03-30T19:50:18.437Z,79.55
2018-03-30T19:52:46.177Z,78.53
2018-03-30T19:55:13.920Z,78.14
2018-03-30T19:57:41.676Z,79.44
2018-03-30T20:00:09.402Z,80.12
2018-03-30T20:02:37.145Z,80.66
2018-03-30T20:05:07.833Z,80.91
2018-03-30T20:07:35.591Z,79.94
2018-03-30T20:10:06.893Z,79.52
2018-03-30T20:12:35.033Z,79.03
2018-03-30T20:15:06.010Z,79.34
2018-03-30T20:17:33.968Z,79.80
2018-03-30T20:22:34.818Z,81.30
2018-03-30T20:25:06.526Z,81.30
2018-03-30T20:27:34.260Z,81.76
2018-03-30T20:30:05.465Z,80.78
2018-03-30T20:32:33.252Z,80.43
2018-03-30T20:35:00.990Z,80.03
2018-03-30T20:37:31.572Z,79.97
2018-03-30T20:39:59.308Z,79.93
2018-03-30T20:42:27.027Z,81.31
2018-03-30T20:44:54.781Z,80.90
2018-03-30T20:47:22.523Z,80.27
2018-03-30T20:49:50.260Z,80.81
2018-03-30T20:52:18.197Z,81.38
2018-03-30T20:54:45.935Z,80.60
2018-03-30T20:57:13.915Z,80.94
2018-03-30T20:59:41.706Z,81.87
2018-03-30T21:02:09.491Z,82.21
2018-03-30T21:04:37.436Z,81.92
2018-03-30T21:07:05.172Z,82.32
2018-03-30T21:09:32.933Z,81.56
2018-03-30T21:12:00.681Z,82.04
2018-03-30T21:14:29.074Z,82.73
2018-03-30T21:16:56.823Z,82.72
2018-03-30T21:19:24.556Z,83.64
2018-03-30T21:21:52.496Z,82.86
2018-03-30T21:24:20.262Z,82.29
2018-03-30T21:26:48.333Z,82.08
2018-03-30T21:29:16.131Z,82.63
2018-03-30T21:31:43.888Z,82.31
2018-03-30T21:34:11.672Z,82.84
2018-03-30T21:36:39.360Z,82.45
2018-03-30T21:39:07.112Z,82.37
2018-03-30T21:41:34.868Z,81.77
2018-03-30T21:44:02.596Z,82.21
2018-03-30T21:46:30.345Z,82.61
2018-03-30T21:48:58.588Z,82.67
2018-03-30T21:51:26.306Z,83.21
2018-03-30T21:53:54.042Z,82.66
2018-03-30T21:56:21.814Z,82.58
2018-03-30T21:58:49.557Z,82.21
2018-03-30T22:01:17.305Z,82.67
2018-03-30T22:03:45.045Z,82.95
2018-03-30T22:06:12.897Z,83.35
2018-03-30T22:08:40.649Z,82.76
2018-03-30T22:11:08.582Z,82.15
2018-03-30T22:13:36.317Z,83.15
2018-03-30T22:16:04.053Z,83.90
2018-03-30T22:18:31.793Z,82.63
2018-03-30T22:20:59.530Z,82.58
2018-03-30T22:23:27.292Z,82.97
2018-03-30T22:25:55.015Z,84.07
2018-03-30T22:28:22.778Z,84.16
2018-03-30T22:30:50.511Z,83.89
2018-03-30T22:33:18.383Z,84.64
2018-03-30T22:35:46.110Z,83.93
2018-03-30T22:38:13.841Z,83.74
2018-03-30T22:40:41.563Z,83.31
2018-03-30T22:43:09.315Z,83.81
2018-03-30T22:45:37.177Z,84.43
2018-03-30T22:48:04.913Z,84.30
2018-03-30T22:50:33.137Z,84.74
2018-03-30T22:53:00.869Z,84.91
2018-03-30T22:55:28.633Z,85.29
2018-03-30T22:57:56.393Z,85.10
2018-03-30T23:00:24.384Z,85.01
2018-03-30T23:02:52.322Z,85.13
2018-03-30T23:05:20.048Z,85.56
2018-03-30T23:07:47.772Z,85.70
2018-03-30T23:10:15.529Z,85.39
2018-03-30T23:12:43.364Z,84.71
2018-03-30T23:15:11.286Z,84.84
2018-03-30T23:17:39.037Z,83.72
2018-03-30T23:20:06.865Z,83.41
2018-03-30T23:22:34.602Z,83.03
2018-03-30T23:25:06.077Z,82.65
2018-03-30T23:27:33.865Z,83.23
2018-03-30T23:30:04.972Z,82.64
2018-03-30T23:32:32.751Z,82.71
2018-03-30T23:35:00.486Z,81.30
2018-03-30T23:37:31.489Z,81.03
2018-03-30T23:39:59.244Z,81.54
2018-03-30T23:42:27.021Z,81.28
2018-03-30T23:44:54.749Z,81.15
2018-03-30T23:47:22.501Z,81.24
2018-03-30T23:49:50.236Z,80.87
2018-03-30T23:52:18.131Z,82.64
2018-03-30T23:54:45.846Z,82.57
2018-03-30T23:57:13.683Z,83.00
2018-03-30T23:59:41.499Z,81.99
